sensor_id;sensor_type;location;lat;lon;timestamp;pressure;altitude;pressure_sealevel;temperature;humidity
45050;BME280;61798;48.048;-1.928;2023-05-07T00:01:01;100790.78;;;13.32;100.00
45050;BME280;61798;48.048;-1.928;2023-05-07T00:03:09;100798.00;;;13.38;100.00
45050;BME280;61798;48.048;-1.928;2023-05-07T00:05:14;100769.25;;;13.32;100.00
45050;BME280;61798;48.048;-1.928;2023-05-07T00:07:20;100795.31;;;13.38;100.00
45050;BME280;61798;48.048;-1.928;2023-05-07T00:09:28;100786.84;;;13.35;100.00
45050;BME280;61798;48.048;-1.928;2023-05-07T00:11:34;100794.28;;;13.26;100.00
45050;BME280;61798;48.048;-1.928;2023-05-07T00:13:41;100800.53;;;13.33;100.00
45050;BME280;61798;48.048;-1.928;2023-05-07T00:15:47;100792.22;;;13.28;100.00
45050;BME280;61798;48.048;-1.928;2023-05-07T00:17:55;100783.53;;;13.19;100.00
45050;BME280;61798;48.048;-1.928;2023-05-07T00:20:01;100789.72;;;13.26;100.00
45050;BME280;61798;48.048;-1.928;2023-05-07T00:22:08;100781.03;;;13.31;100.00
45050;BME280;61798;48.048;-1.928;2023-05-07T00:24:15;100785.19;;;13.34;100.00
45050;BME280;61798;48.048;-1.928;2023-05-07T00:26:22;100795.72;;;13.42;100.00
45050;BME280;61798;48.048;-1.928;2023-05-07T00:28:29;100800.31;;;13.41;100.00
45050;BME280;61798;48.048;-1.928;2023-05-07T00:30:35;100778.34;;;13.31;100.00
45050;BME280;61798;48.048;-1.928;2023-05-07T00:32:41;100800.69;;;13.38;100.00
45050;BME280;61798;48.048;-1.928;2023-05-07T00:34:49;100794.28;;;13.39;100.00
45050;BME280;61798;48.048;-1.928;2023-05-07T00:36:56;100786.03;;;13.41;100.00
45050;BME280;61798;48.048;-1.928;2023-05-07T00:39:03;100783.53;;;13.39;100.00
45050;BME280;61798;48.048;-1.928;2023-05-07T00:41:09;100756.00;;;13.17;100.00
45050;BME280;61798;48.048;-1.928;2023-05-07T00:43:16;100768.84;;;13.15;100.00
45050;BME280;61798;48.048;-1.928;2023-05-07T00:45:24;100786.84;;;13.07;100.00
45050;BME280;61798;48.048;-1.928;2023-05-07T00:47:31;100801.53;;;13.11;100.00
45050;BME280;61798;48.048;-1.928;2023-05-07T00:49:41;100794.50;;;13.04;100.00
45050;BME280;61798;48.048;-1.928;2023-05-07T00:51:48;100769.22;;;12.91;100.00
45050;BME280;61798;48.048;-1.928;2023-05-07T00:53:55;100772.75;;;12.92;100.00
45050;BME280;61798;48.048;-1.928;2023-05-07T00:56:01;100780.63;;;13.00;100.00
45050;BME280;61798;48.048;-1.928;2023-05-07T00:58:09;100787.88;;;12.93;100.00
45050;BME280;61798;48.048;-1.928;2023-05-07T01:00:15;100784.97;;;12.94;100.00
45050;BME280;61798;48.048;-1.928;2023-05-07T01:02:21;100802.16;;;13.00;100.00
45050;BME280;61798;48.048;-1.928;2023-05-07T01:04:28;100799.28;;;13.02;100.00
45050;BME280;61798;48.048;-1.928;2023-05-07T01:06:34;100762.19;;;12.76;100.00
45050;BME280;61798;48.048;-1.928;2023-05-07T01:08:42;100784.75;;;12.96;100.00
45050;BME280;61798;48.048;-1.928;2023-05-07T01:10:48;100790.97;;;12.96;100.00
45050;BME280;61798;48.048;-1.928;2023-05-07T01:12:54;100772.13;;;12.83;100.00
45050;BME280;61798;48.048;-1.928;2023-05-07T01:15:01;100793.66;;;13.03;100.00
45050;BME280;61798;48.048;-1.928;2023-05-07T01:17:08;100784.56;;;13.11;100.00
45050;BME280;61798;48.048;-1.928;2023-05-07T01:19:17;100777.72;;;13.15;100.00
45050;BME280;61798;48.048;-1.928;2023-05-07T01:21:26;100786.41;;;13.10;100.00
45050;BME280;61798;48.048;-1.928;2023-05-07T01:23:33;100787.03;;;13.06;100.00
45050;BME280;61798;48.048;-1.928;2023-05-07T01:25:39;100735.50;;;12.68;100.00
45050;BME280;61798;48.048;-1.928;2023-05-07T01:27:46;100785.19;;;12.93;100.00
45050;BME280;61798;48.048;-1.928;2023-05-07T01:29:52;100750.59;;;12.69;100.00
45050;BME280;61798;48.048;-1.928;2023-05-07T01:32:01;100787.44;;;12.96;100.00
45050;BME280;61798;48.048;-1.928;2023-05-07T01:34:08;100785.97;;;12.86;100.00
45050;BME280;61798;48.048;-1.928;2023-05-07T01:36:17;100770.47;;;12.88;100.00
45050;BME280;61798;48.048;-1.928;2023-05-07T01:38:25;100785.38;;;12.91;100.00
45050;BME280;61798;48.048;-1.928;2023-05-07T01:40:33;100780.19;;;12.83;100.00
45050;BME280;61798;48.048;-1.928;2023-05-07T01:42:42;100780.19;;;12.83;100.00
45050;BME280;61798;48.048;-1.928;2023-05-07T01:44:48;100760.94;;;12.72;100.00
45050;BME280;61798;48.048;-1.928;2023-05-07T01:46:54;100765.91;;;12.82;100.00
45050;BME280;61798;48.048;-1.928;2023-05-07T01:49:02;100753.91;;;12.78;100.00
45050;BME280;61798;48.048;-1.928;2023-05-07T01:51:08;100747.09;;;12.68;100.00
45050;BME280;61798;48.048;-1.928;2023-05-07T01:53:14;100776.84;;;12.67;100.00
45050;BME280;61798;48.048;-1.928;2023-05-07T01:55:20;100773.13;;;12.68;100.00
45050;BME280;61798;48.048;-1.928;2023-05-07T01:57:27;100758.63;;;12.48;100.00
45050;BME280;61798;48.048;-1.928;2023-05-07T01:59:33;100775.41;;;12.57;100.00
45050;BME280;61798;48.048;-1.928;2023-05-07T02:01:40;100767.53;;;12.63;100.00
45050;BME280;61798;48.048;-1.928;2023-05-07T02:03:46;100764.41;;;12.52;100.00
45050;BME280;61798;48.048;-1.928;2023-05-07T02:05:52;100760.66;;;12.46;100.00
45050;BME280;61798;48.048;-1.928;2023-05-07T02:07:59;100769.81;;;12.59;100.00
45050;BME280;61798;48.048;-1.928;2023-05-07T02:10:05;100755.28;;;12.46;100.00
45050;BME280;61798;48.048;-1.928;2023-05-07T02:12:13;100778.47;;;12.54;100.00
45050;BME280;61798;48.048;-1.928;2023-05-07T02:14:19;100767.28;;;12.44;100.00
45050;BME280;61798;48.048;-1.928;2023-05-07T02:16:26;100773.72;;;12.50;100.00
45050;BME280;61798;48.048;-1.928;2023-05-07T02:18:33;100783.03;;;12.54;100.00
45050;BME280;61798;48.048;-1.928;2023-05-07T02:20:38;100789.22;;;12.54;100.00
45050;BME280;61798;48.048;-1.928;2023-05-07T02:22:46;100785.66;;;12.33;100.00
45050;BME280;61798;48.048;-1.928;2023-05-07T02:24:52;100783.00;;;12.40;100.00
45050;BME280;61798;48.048;-1.928;2023-05-07T02:26:57;100800.19;;;12.53;100.00
45050;BME280;61798;48.048;-1.928;2023-05-07T02:29:05;100793.31;;;12.36;100.00
45050;BME280;61798;48.048;-1.928;2023-05-07T02:31:10;100793.72;;;12.33;100.00
45050;BME280;61798;48.048;-1.928;2023-05-07T02:33:18;100810.09;;;12.45;100.00
45050;BME280;61798;48.048;-1.928;2023-05-07T02:35:25;100793.75;;;12.40;100.00
45050;BME280;61798;48.048;-1.928;2023-05-07T02:37:31;100807.63;;;12.51;100.00
45050;BME280;61798;48.048;-1.928;2023-05-07T02:39:38;100805.97;;;12.50;100.00
45050;BME280;61798;48.048;-1.928;2023-05-07T02:41:44;100799.72;;;12.42;100.00
45050;BME280;61798;48.048;-1.928;2023-05-07T02:43:51;100810.88;;;12.39;100.00
45050;BME280;61798;48.048;-1.928;2023-05-07T02:46:15;100810.69;;;12.34;100.00
45050;BME280;61798;48.048;-1.928;2023-05-07T02:48:22;100827.06;;;12.46;100.00
45050;BME280;61798;48.048;-1.928;2023-05-07T02:50:28;100831.78;;;12.37;100.00
45050;BME280;61798;48.048;-1.928;2023-05-07T02:52:34;100832.59;;;12.37;100.00
45050;BME280;61798;48.048;-1.928;2023-05-07T02:54:41;100840.84;;;12.29;100.00
45050;BME280;61798;48.048;-1.928;2023-05-07T02:56:47;100803.88;;;12.02;100.00
45050;BME280;61798;48.048;-1.928;2023-05-07T02:58:54;100837.91;;;12.24;100.00
45050;BME280;61798;48.048;-1.928;2023-05-07T03:01:00;100829.44;;;12.27;100.00
45050;BME280;61798;48.048;-1.928;2023-05-07T03:03:07;100828.66;;;12.33;100.00
45050;BME280;61798;48.048;-1.928;2023-05-07T03:05:13;100806.63;;;12.16;100.00
45050;BME280;61798;48.048;-1.928;2023-05-07T03:07:19;100816.53;;;12.15;100.00
45050;BME280;61798;48.048;-1.928;2023-05-07T03:09:27;100839.19;;;12.35;100.00
45050;BME280;61798;48.048;-1.928;2023-05-07T03:11:32;100856.84;;;12.51;100.00
45050;BME280;61798;48.048;-1.928;2023-05-07T03:13:39;100854.56;;;12.48;100.00
45050;BME280;61798;48.048;-1.928;2023-05-07T03:15:45;100851.28;;;12.53;100.00
45050;BME280;61798;48.048;-1.928;2023-05-07T03:17:52;100835.91;;;12.40;100.00
45050;BME280;61798;48.048;-1.928;2023-05-07T03:19:58;100850.00;;;12.48;100.00
45050;BME280;61798;48.048;-1.928;2023-05-07T03:22:04;100835.50;;;12.43;100.00
45050;BME280;61798;48.048;-1.928;2023-05-07T03:24:11;100849.16;;;12.41;100.00
45050;BME280;61798;48.048;-1.928;2023-05-07T03:26:17;100840.44;;;12.32;100.00
45050;BME280;61798;48.048;-1.928;2023-05-07T03:28:24;100850.78;;;12.35;100.00
45050;BME280;61798;48.048;-1.928;2023-05-07T03:30:30;100852.47;;;12.43;100.00
45050;BME280;61798;48.048;-1.928;2023-05-07T03:32:35;100858.25;;;12.40;100.00
45050;BME280;61798;48.048;-1.928;2023-05-07T03:34:43;100849.59;;;12.45;100.00
45050;BME280;61798;48.048;-1.928;2023-05-07T03:36:49;100856.38;;;12.41;100.00
45050;BME280;61798;48.048;-1.928;2023-05-07T03:38:56;100860.75;;;12.42;100.00
45050;BME280;61798;48.048;-1.928;2023-05-07T03:41:02;100815.28;;;12.11;100.00
45050;BME280;61798;48.048;-1.928;2023-05-07T03:43:09;100835.41;;;12.22;100.00
45050;BME280;61798;48.048;-1.928;2023-05-07T03:45:15;100866.13;;;12.42;100.00
45050;BME280;61798;48.048;-1.928;2023-05-07T03:47:21;100867.53;;;12.37;100.00
45050;BME280;61798;48.048;-1.928;2023-05-07T03:49:28;100860.75;;;12.48;100.00
45050;BME280;61798;48.048;-1.928;2023-05-07T03:51:34;100867.41;;;12.53;100.00
45050;BME280;61798;48.048;-1.928;2023-05-07T03:53:42;100875.88;;;12.56;100.00
45050;BME280;61798;48.048;-1.928;2023-05-07T03:55:48;100878.81;;;12.62;100.00
45050;BME280;61798;48.048;-1.928;2023-05-07T03:57:55;100865.72;;;12.52;100.00
45050;BME280;61798;48.048;-1.928;2023-05-07T04:00:04;100860.53;;;12.43;100.00
45050;BME280;61798;48.048;-1.928;2023-05-07T04:02:11;100848.94;;;12.43;100.00
45050;BME280;61798;48.048;-1.928;2023-05-07T04:04:18;100873.19;;;12.56;100.00
45050;BME280;61798;48.048;-1.928;2023-05-07T04:06:24;100877.38;;;12.66;100.00
45050;BME280;61798;48.048;-1.928;2023-05-07T04:08:31;100858.31;;;12.54;100.00
45050;BME280;61798;48.048;-1.928;2023-05-07T04:10:37;100873.88;;;12.65;100.00
45050;BME280;61798;48.048;-1.928;2023-05-07T04:12:42;100871.56;;;12.62;100.00
45050;BME280;61798;48.048;-1.928;2023-05-07T04:14:49;100885.44;;;12.66;100.00
45050;BME280;61798;48.048;-1.928;2023-05-07T04:16:55;100870.69;;;12.55;100.00
45050;BME280;61798;48.048;-1.928;2023-05-07T04:19:02;100879.66;;;12.69;100.00
45050;BME280;61798;48.048;-1.928;2023-05-07T04:21:20;100869.69;;;12.63;100.00
45050;BME280;61798;48.048;-1.928;2023-05-07T04:23:27;100884.41;;;12.67;100.00
45050;BME280;61798;48.048;-1.928;2023-05-07T04:25:33;100887.13;;;12.74;100.00
45050;BME280;61798;48.048;-1.928;2023-05-07T04:27:39;100864.53;;;12.61;100.00
45050;BME280;61798;48.048;-1.928;2023-05-07T04:29:46;100878.22;;;12.73;100.00
45050;BME280;61798;48.048;-1.928;2023-05-07T04:31:52;100878.84;;;12.75;100.00
45050;BME280;61798;48.048;-1.928;2023-05-07T04:33:59;100864.91;;;12.58;100.00
45050;BME280;61798;48.048;-1.928;2023-05-07T04:36:06;100859.94;;;12.55;100.00
45050;BME280;61798;48.048;-1.928;2023-05-07T04:38:14;100866.41;;;12.61;100.00
45050;BME280;61798;48.048;-1.928;2023-05-07T04:40:20;100870.09;;;12.60;100.00
45050;BME280;61798;48.048;-1.928;2023-05-07T04:42:26;100891.88;;;12.72;100.00
45050;BME280;61798;48.048;-1.928;2023-05-07T04:44:33;100864.13;;;12.57;100.00
45050;BME280;61798;48.048;-1.928;2023-05-07T04:46:39;100865.31;;;12.55;100.00
45050;BME280;61798;48.048;-1.928;2023-05-07T04:48:47;100884.41;;;12.67;100.00
45050;BME280;61798;48.048;-1.928;2023-05-07T04:50:53;100899.94;;;12.72;100.00
45050;BME280;61798;48.048;-1.928;2023-05-07T04:52:58;100862.03;;;12.60;100.00
45050;BME280;61798;48.048;-1.928;2023-05-07T04:55:06;100901.81;;;12.78;100.00
45050;BME280;61798;48.048;-1.928;2023-05-07T04:57:12;100903.91;;;12.83;100.00
45050;BME280;61798;48.048;-1.928;2023-05-07T04:59:20;100919.66;;;12.86;100.00
45050;BME280;61798;48.048;-1.928;2023-05-07T05:01:26;100903.91;;;12.83;100.00
45050;BME280;61798;48.048;-1.928;2023-05-07T05:03:33;100877.81;;;12.69;100.00
45050;BME280;61798;48.048;-1.928;2023-05-07T05:05:38;100914.28;;;12.86;100.00
45050;BME280;61798;48.048;-1.928;2023-05-07T05:07:44;100908.44;;;12.82;100.00
45050;BME280;61798;48.048;-1.928;2023-05-07T05:09:51;100874.44;;;12.54;100.00
45050;BME280;61798;48.048;-1.928;2023-05-07T05:11:57;100894.31;;;12.66;100.00
45050;BME280;61798;48.048;-1.928;2023-05-07T05:14:03;100914.66;;;12.83;100.00
45050;BME280;61798;48.048;-1.928;2023-05-07T05:16:09;100922.97;;;12.88;100.00
45050;BME280;61798;48.048;-1.928;2023-05-07T05:18:16;100903.88;;;12.76;100.00
45050;BME280;61798;48.048;-1.928;2023-05-07T05:20:22;100903.03;;;12.75;100.00
45050;BME280;61798;48.048;-1.928;2023-05-07T05:22:29;100919.41;;;12.81;100.00
45050;BME280;61798;48.048;-1.928;2023-05-07T05:24:36;100914.06;;;12.87;100.00
45050;BME280;61798;48.048;-1.928;2023-05-07T05:26:43;100930.84;;;12.96;100.00
45050;BME280;61798;48.048;-1.928;2023-05-07T05:28:49;100904.94;;;12.82;100.00
45050;BME280;61798;48.048;-1.928;2023-05-07T05:30:55;100894.78;;;12.77;100.00
45050;BME280;61798;48.048;-1.928;2023-05-07T05:33:02;100902.88;;;12.84;100.00
45050;BME280;61798;48.048;-1.928;2023-05-07T05:35:08;100911.38;;;12.87;100.00
45050;BME280;61798;48.048;-1.928;2023-05-07T05:37:15;100921.53;;;12.92;100.00
45050;BME280;61798;48.048;-1.928;2023-05-07T05:39:21;100945.75;;;13.06;100.00
45050;BME280;61798;48.048;-1.928;2023-05-07T05:41:28;100949.31;;;13.13;100.00
45050;BME280;61798;48.048;-1.928;2023-05-07T05:43:34;100944.16;;;13.18;100.00
45050;BME280;61798;48.048;-1.928;2023-05-07T05:45:40;100955.13;;;13.17;100.00
45050;BME280;61798;48.048;-1.928;2023-05-07T05:47:47;100952.22;;;13.18;100.00
45050;BME280;61798;48.048;-1.928;2023-05-07T05:49:53;100948.09;;;13.22;100.00
45050;BME280;61798;48.048;-1.928;2023-05-07T05:51:59;100925.31;;;13.18;100.00
45050;BME280;61798;48.048;-1.928;2023-05-07T05:54:06;100943.97;;;13.20;100.00
45050;BME280;61798;48.048;-1.928;2023-05-07T05:56:12;100937.13;;;13.17;100.00
45050;BME280;61798;48.048;-1.928;2023-05-07T05:58:19;100952.88;;;13.27;100.00
45050;BME280;61798;48.048;-1.928;2023-05-07T06:00:25;100959.06;;;13.21;100.00
45050;BME280;61798;48.048;-1.928;2023-05-07T06:02:32;100960.94;;;13.20;100.00
45050;BME280;61798;48.048;-1.928;2023-05-07T06:04:38;100945.19;;;13.17;100.00
45050;BME280;61798;48.048;-1.928;2023-05-07T06:06:44;100954.53;;;13.21;100.00
45050;BME280;61798;48.048;-1.928;2023-05-07T06:08:51;100941.28;;;13.27;100.00
45050;BME280;61798;48.048;-1.928;2023-05-07T06:10:58;100963.25;;;13.37;100.00
45050;BME280;61798;48.048;-1.928;2023-05-07T06:13:05;100966.78;;;13.51;100.00
45050;BME280;61798;48.048;-1.928;2023-05-07T06:15:11;100959.31;;;13.47;100.00
45050;BME280;61798;48.048;-1.928;2023-05-07T06:17:17;100947.13;;;13.44;100.00
45050;BME280;61798;48.048;-1.928;2023-05-07T06:19:24;100967.41;;;13.53;100.00
45050;BME280;61798;48.048;-1.928;2023-05-07T06:21:32;100960.38;;;13.59;100.00
45050;BME280;61798;48.048;-1.928;2023-05-07T06:23:39;100978.25;;;13.60;100.00
45050;BME280;61798;48.048;-1.928;2023-05-07T06:25:48;100979.06;;;13.68;100.00
45050;BME280;61798;48.048;-1.928;2023-05-07T06:27:56;100968.53;;;13.73;100.00
45050;BME280;61798;48.048;-1.928;2023-05-07T06:30:04;100987.16;;;13.74;100.00
45050;BME280;61798;48.048;-1.928;2023-05-07T06:32:13;100963.06;;;13.59;100.00
45050;BME280;61798;48.048;-1.928;2023-05-07T06:34:20;100974.53;;;13.68;100.00
45050;BME280;61798;48.048;-1.928;2023-05-07T06:36:26;100984.88;;;13.78;100.00
45050;BME280;61798;48.048;-1.928;2023-05-07T06:38:33;100984.88;;;13.78;100.00
45050;BME280;61798;48.048;-1.928;2023-05-07T06:40:40;100991.31;;;13.84;100.00
45050;BME280;61798;48.048;-1.928;2023-05-07T06:42:46;100966.84;;;13.85;100.00
45050;BME280;61798;48.048;-1.928;2023-05-07T06:44:53;100987.56;;;13.99;100.00
45050;BME280;61798;48.048;-1.928;2023-05-07T06:47:00;100974.31;;;14.04;100.00
45050;BME280;61798;48.048;-1.928;2023-05-07T06:49:08;100983.63;;;14.15;100.00
45050;BME280;61798;48.048;-1.928;2023-05-07T06:51:15;100994.63;;;14.13;100.00
45050;BME280;61798;48.048;-1.928;2023-05-07T06:53:22;100972.25;;;13.99;100.00
45050;BME280;61798;48.048;-1.928;2023-05-07T06:55:29;100986.97;;;14.17;100.00
45050;BME280;61798;48.048;-1.928;2023-05-07T06:57:36;100963.09;;;14.14;100.00
45050;BME280;61798;48.048;-1.928;2023-05-07T06:59:43;100981.56;;;14.17;100.00
45050;BME280;61798;48.048;-1.928;2023-05-07T07:01:50;100981.53;;;14.31;100.00
45050;BME280;61798;48.048;-1.928;2023-05-07T07:03:57;100983.84;;;14.20;100.00
45050;BME280;61798;48.048;-1.928;2023-05-07T07:06:04;100990.06;;;14.27;100.00
45050;BME280;61798;48.048;-1.928;2023-05-07T07:08:11;100990.03;;;14.41;100.00
45050;BME280;61798;48.048;-1.928;2023-05-07T07:10:19;100991.47;;;14.51;100.00
45050;BME280;61798;48.048;-1.928;2023-05-07T07:12:26;101001.88;;;14.40;100.00
45050;BME280;61798;48.048;-1.928;2023-05-07T07:14:35;100997.06;;;14.42;100.00
45050;BME280;61798;48.048;-1.928;2023-05-07T07:16:43;100994.59;;;14.47;100.00
45050;BME280;61798;48.048;-1.928;2023-05-07T07:18:50;101007.41;;;14.59;100.00
45050;BME280;61798;48.048;-1.928;2023-05-07T07:21:00;100986.94;;;14.31;100.00
45050;BME280;61798;48.048;-1.928;2023-05-07T07:23:07;101006.84;;;14.43;100.00
45050;BME280;61798;48.048;-1.928;2023-05-07T07:25:14;100999.56;;;14.44;100.00
45050;BME280;61798;48.048;-1.928;2023-05-07T07:27:21;100982.41;;;14.24;100.00
45050;BME280;61798;48.048;-1.928;2023-05-07T07:29:28;100996.28;;;14.28;100.00
45050;BME280;61798;48.048;-1.928;2023-05-07T07:31:35;100984.88;;;14.33;100.00
45050;BME280;61798;48.048;-1.928;2023-05-07T07:33:42;100994.41;;;14.29;100.00
45050;BME280;61798;48.048;-1.928;2023-05-07T07:35:49;101001.66;;;14.35;100.00
45050;BME280;61798;48.048;-1.928;2023-05-07T07:37:55;101016.81;;;14.36;100.00
45050;BME280;61798;48.048;-1.928;2023-05-07T07:40:03;101002.06;;;14.18;100.00
45050;BME280;61798;48.048;-1.928;2023-05-07T07:42:10;101009.13;;;14.33;100.00
45050;BME280;61798;48.048;-1.928;2023-05-07T07:44:17;101022.41;;;14.27;100.00
45050;BME280;61798;48.048;-1.928;2023-05-07T07:46:24;101024.69;;;14.31;100.00
45050;BME280;61798;48.048;-1.928;2023-05-07T07:48:33;101008.06;;;14.34;100.00
45050;BME280;61798;48.048;-1.928;2023-05-07T07:50:40;101026.34;;;14.32;100.00
45050;BME280;61798;48.048;-1.928;2023-05-07T07:52:48;100995.88;;;14.11;100.00
45050;BME280;61798;48.048;-1.928;2023-05-07T07:54:55;101034.22;;;14.26;100.00
45050;BME280;61798;48.048;-1.928;2023-05-07T07:57:02;101041.25;;;14.34;100.00
45050;BME280;61798;48.048;-1.928;2023-05-07T07:59:09;101047.50;;;14.28;100.00
45050;BME280;61798;48.048;-1.928;2023-05-07T08:01:15;100980.31;;;14.20;100.00
45050;BME280;61798;48.048;-1.928;2023-05-07T08:03:24;101027.34;;;14.58;100.00
45050;BME280;61798;48.048;-1.928;2023-05-07T08:05:31;101038.31;;;14.63;100.00
45050;BME280;61798;48.048;-1.928;2023-05-07T08:07:38;101008.88;;;14.55;100.00
45050;BME280;61798;48.048;-1.928;2023-05-07T08:09:51;100998.13;;;14.48;100.00
45050;BME280;61798;48.048;-1.928;2023-05-07T08:11:59;101040.78;;;14.78;100.00
45050;BME280;61798;48.048;-1.928;2023-05-07T08:14:08;101036.66;;;14.76;100.00
45050;BME280;61798;48.048;-1.928;2023-05-07T08:16:15;101039.13;;;14.70;100.00
45050;BME280;61798;48.048;-1.928;2023-05-07T08:18:22;101009.53;;;14.43;100.00
45050;BME280;61798;48.048;-1.928;2023-05-07T08:20:31;101028.81;;;14.33;100.00
45050;BME280;61798;48.048;-1.928;2023-05-07T08:22:39;101043.56;;;14.24;100.00
45050;BME280;61798;48.048;-1.928;2023-05-07T08:24:52;101054.97;;;14.12;100.00
45050;BME280;61798;48.048;-1.928;2023-05-07T08:27:00;101045.59;;;14.01;100.00
45050;BME280;61798;48.048;-1.928;2023-05-07T08:29:10;101064.91;;;14.19;100.00
45050;BME280;61798;48.048;-1.928;2023-05-07T08:31:42;101080.47;;;14.23;100.00
45050;BME280;61798;48.048;-1.928;2023-05-07T08:33:50;101056.41;;;14.22;100.00
45050;BME280;61798;48.048;-1.928;2023-05-07T08:35:56;101031.09;;;14.02;100.00
45050;BME280;61798;48.048;-1.928;2023-05-07T08:38:06;101062.84;;;14.27;100.00
45050;BME280;61798;48.048;-1.928;2023-05-07T08:40:15;101058.06;;;14.09;100.00
45050;BME280;61798;48.048;-1.928;2023-05-07T08:42:23;101071.56;;;14.36;100.00
45050;BME280;61798;48.048;-1.928;2023-05-07T08:44:35;101075.28;;;14.08;100.00
45050;BME280;61798;48.048;-1.928;2023-05-07T08:46:43;101081.06;;;14.05;100.00
45050;BME280;61798;48.048;-1.928;2023-05-07T08:48:54;101085.66;;;14.25;100.00
45050;BME280;61798;48.048;-1.928;2023-05-07T08:51:02;101095.81;;;14.36;100.00
45050;BME280;61798;48.048;-1.928;2023-05-07T08:53:09;101063.44;;;13.95;100.00
45050;BME280;61798;48.048;-1.928;2023-05-07T08:55:17;101095.59;;;14.24;100.00
45050;BME280;61798;48.048;-1.928;2023-05-07T08:57:23;101079.22;;;14.19;100.00
45050;BME280;61798;48.048;-1.928;2023-05-07T08:59:31;101099.53;;;14.15;100.00
45050;BME280;61798;48.048;-1.928;2023-05-07T09:01:38;101107.63;;;14.08;100.00
45050;BME280;61798;48.048;-1.928;2023-05-07T09:03:46;101043.56;;;13.97;100.00
45050;BME280;61798;48.048;-1.928;2023-05-07T09:05:53;101093.09;;;14.23;100.00
45050;BME280;61798;48.048;-1.928;2023-05-07T09:08:02;101099.72;;;13.93;100.00
45050;BME280;61798;48.048;-1.928;2023-05-07T09:10:12;101102.00;;;14.10;100.00
45050;BME280;61798;48.048;-1.928;2023-05-07T09:12:21;101093.75;;;14.25;100.00
45050;BME280;61798;48.048;-1.928;2023-05-07T09:14:28;101069.88;;;14.35;100.00
45050;BME280;61798;48.048;-1.928;2023-05-07T09:16:40;101086.25;;;14.61;100.00
45050;BME280;61798;48.048;-1.928;2023-05-07T09:18:51;101084.81;;;13.97;100.00
45050;BME280;61798;48.048;-1.928;2023-05-07T09:20:58;101096.22;;;14.47;100.00
45050;BME280;61798;48.048;-1.928;2023-05-07T09:23:08;101102.66;;;14.53;100.00
45050;BME280;61798;48.048;-1.928;2023-05-07T09:25:27;101117.16;;;14.58;100.00
45050;BME280;61798;48.048;-1.928;2023-05-07T09:27:35;101109.28;;;14.70;100.00
45050;BME280;61798;48.048;-1.928;2023-05-07T09:29:43;101123.38;;;14.93;100.00
45050;BME280;61798;48.048;-1.928;2023-05-07T09:31:59;101122.53;;;15.06;100.00
45050;BME280;61798;48.048;-1.928;2023-05-07T09:34:11;101084.38;;;14.62;100.00
45050;BME280;61798;48.048;-1.928;2023-05-07T09:36:19;101110.47;;;15.09;100.00
45050;BME280;61798;48.048;-1.928;2023-05-07T09:38:26;101089.88;;;15.28;100.00
45050;BME280;61798;48.048;-1.928;2023-05-07T09:40:35;101113.19;;;15.62;100.00
45050;BME280;61798;48.048;-1.928;2023-05-07T09:42:42;101101.50;;;15.22;100.00
45050;BME280;61798;48.048;-1.928;2023-05-07T09:47:24;101117.56;;;14.69;100.00
45050;BME280;61798;48.048;-1.928;2023-05-07T09:49:35;101100.50;;;15.09;100.00
45050;BME280;61798;48.048;-1.928;2023-05-07T09:51:47;101119.97;;;15.25;100.00
45050;BME280;61798;48.048;-1.928;2023-05-07T09:53:56;101108.09;;;15.40;100.00
45050;BME280;61798;48.048;-1.928;2023-05-07T09:56:03;101102.06;;;15.38;100.00
45050;BME280;61798;48.048;-1.928;2023-05-07T09:58:12;101104.44;;;15.67;100.00
45050;BME280;61798;48.048;-1.928;2023-05-07T10:00:22;101102.78;;;15.65;100.00
45050;BME280;61798;48.048;-1.928;2023-05-07T10:02:31;101108.75;;;15.74;100.00
45050;BME280;61798;48.048;-1.928;2023-05-07T10:04:42;101112.25;;;15.82;100.00
45050;BME280;61798;48.048;-1.928;2023-05-07T10:06:49;101078.63;;;15.31;100.00
45050;BME280;61798;48.048;-1.928;2023-05-07T10:08:57;101105.00;;;15.29;100.00
45050;BME280;61798;48.048;-1.928;2023-05-07T10:11:05;101102.13;;;15.70;100.00
45050;BME280;61798;48.048;-1.928;2023-05-07T10:13:16;101106.13;;;16.33;100.00
45050;BME280;61798;48.048;-1.928;2023-05-07T10:15:24;101101.50;;;16.40;100.00
45050;BME280;61798;48.048;-1.928;2023-05-07T10:17:36;101073.56;;;15.88;100.00
45050;BME280;61798;48.048;-1.928;2023-05-07T10:19:44;101111.41;;;15.81;100.00
45050;BME280;61798;48.048;-1.928;2023-05-07T10:21:57;101113.28;;;15.48;100.00
45050;BME280;61798;48.048;-1.928;2023-05-07T10:24:09;101116.16;;;15.47;100.00
45050;BME280;61798;48.048;-1.928;2023-05-07T10:26:22;101114.41;;;15.66;100.00
45050;BME280;61798;48.048;-1.928;2023-05-07T10:28:36;101109.22;;;15.64;100.00
45050;BME280;61798;48.048;-1.928;2023-05-07T10:31:20;101135.06;;;15.47;100.00
45050;BME280;61798;48.048;-1.928;2023-05-07T10:33:27;101137.47;;;15.16;100.00
45050;BME280;61798;48.048;-1.928;2023-05-07T10:35:41;101131.59;;;15.26;100.00
45050;BME280;61798;48.048;-1.928;2023-05-07T10:37:50;101112.97;;;15.63;100.00
45050;BME280;61798;48.048;-1.928;2023-05-07T10:39:57;101114.41;;;15.66;100.00
45050;BME280;61798;48.048;-1.928;2023-05-07T10:42:12;101140.78;;;15.71;100.00
45050;BME280;61798;48.048;-1.928;2023-05-07T10:44:29;101128.94;;;16.04;100.00
45050;BME280;61798;48.048;-1.928;2023-05-07T10:46:36;101111.00;;;16.24;100.00
45050;BME280;61798;48.048;-1.928;2023-05-07T10:51:22;101133.78;;;16.35;100.00
45050;BME280;61798;48.048;-1.928;2023-05-07T10:53:29;101135.25;;;16.56;100.00
45050;BME280;61798;48.048;-1.928;2023-05-07T10:55:35;101138.03;;;16.75;100.00